Time;durP1;ratioP1;P1;durP2;ratioP2;P2;SDS_P1;SDS_P2;PMS_P1;PMS_P2;Temp;Humidity;BMP_temperature;BMP_pressure;BME280_temperature;BME280_humidity;BME280_pressure;Samples;Min_cycle;Max_cycle;Signal;HPM_P1;HPM_P2
2023/09/01 00:00:41;;;;;;;3.33;1.48;;;15.20;99.90;;;;;;5048098;28;20116;-67
2023/09/01 00:03:07;;;;;;;4.63;1.40;;;15.20;99.90;;;;;;5047990;28;20128;-67
2023/09/01 00:05:33;;;;;;;5.90;1.73;;;15.20;99.90;;;;;;5048285;28;20025;-67
2023/09/01 00:07:59;;;;;;;6.13;1.73;;;15.10;99.90;;;;;;5047222;28;20040;-66
2023/09/01 00:10:25;;;;;;;4.75;1.88;;;15.20;99.90;;;;;;5047268;28;20033;-68
2023/09/01 00:12:50;;;;;;;6.88;2.08;;;15.20;99.90;;;;;;5046671;28;20037;-67
2023/09/01 00:15:16;;;;;;;8.95;2.08;;;15.20;99.90;;;;;;5048495;28;20033;-66
2023/09/01 00:17:41;;;;;;;4.30;1.75;;;15.10;99.90;;;;;;5048345;28;20041;-68
2023/09/01 00:20:08;;;;;;;3.45;1.55;;;15.10;99.90;;;;;;5048227;28;20040;-70
2023/09/01 00:22:34;;;;;;;4.47;2.08;;;15.10;99.90;;;;;;5048166;28;20029;-67
2023/09/01 00:24:59;;;;;;;5.35;2.03;;;15.10;99.90;;;;;;5046823;28;20041;-69
2023/09/01 00:27:25;;;;;;;6.25;2.10;;;15.10;99.90;;;;;;5047428;28;20048;-67
2023/09/01 00:29:51;;;;;;;7.30;2.70;;;15.10;99.90;;;;;;5048133;28;20029;-67
2023/09/01 00:32:16;;;;;;;7.15;2.03;;;15.00;99.90;;;;;;5048175;28;20036;-67
2023/09/01 00:34:42;;;;;;;7.00;2.10;;;15.00;99.90;;;;;;5045837;28;20037;-69
2023/09/01 00:37:07;;;;;;;5.03;2.03;;;15.00;99.90;;;;;;5048074;28;20039;-67
2023/09/01 00:39:33;;;;;;;4.85;1.90;;;14.90;99.90;;;;;;5048164;28;20026;-67
2023/09/01 00:41:59;;;;;;;7.43;1.85;;;14.90;99.90;;;;;;5046751;28;20131;-70
2023/09/01 00:44:24;;;;;;;6.50;1.75;;;14.90;99.90;;;;;;5046639;28;20029;-68
2023/09/01 00:46:50;;;;;;;6.28;1.70;;;14.80;99.90;;;;;;5046830;28;20543;-67
2023/09/01 00:49:18;;;;;;;7.97;2.47;;;14.80;99.90;;;;;;5047749;28;20052;-67
2023/09/01 00:51:47;;;;;;;4.40;1.90;;;14.80;99.90;;;;;;5046156;28;20040;-70
2023/09/01 00:54:14;;;;;;;7.15;2.00;;;14.80;99.90;;;;;;5048163;28;20067;-67
2023/09/01 00:56:41;;;;;;;6.40;2.58;;;14.90;99.90;;;;;;5047763;28;20113;-67
2023/09/01 00:59:07;;;;;;;6.63;1.95;;;14.80;99.90;;;;;;5054226;28;20040;-66
2023/09/01 01:01:33;;;;;;;10.80;3.15;;;14.80;99.90;;;;;;5047762;28;20041;-68
2023/09/01 01:04:00;;;;;;;6.10;2.63;;;14.80;99.90;;;;;;5047412;28;20333;-68
2023/09/01 01:07:06;;;;;;;5.70;2.10;;;14.80;99.90;;;;;;5048134;28;20311;-68
2023/09/01 01:09:53;;;;;;;5.97;1.83;;;14.80;99.90;;;;;;5030158;28;20322;-69
2023/09/01 01:12:40;;;;;;;7.13;2.22;;;14.80;99.90;;;;;;5044125;28;20083;-67
2023/09/01 01:15:09;;;;;;;6.32;2.08;;;14.80;99.90;;;;;;5046452;28;20057;-68
2023/09/01 01:17:43;;;;;;;5.05;2.00;;;14.80;99.90;;;;;;5051166;28;20492;-68
2023/09/01 01:20:15;;;;;;;5.68;2.33;;;14.80;99.90;;;;;;5046293;28;20060;-68
2023/09/01 01:22:42;;;;;;;8.40;2.33;;;14.80;99.90;;;;;;5050916;28;20033;-68
2023/09/01 01:25:09;;;;;;;6.60;2.33;;;14.80;99.90;;;;;;5049979;28;20041;-68
2023/09/01 01:27:35;;;;;;;6.80;2.72;;;14.80;99.90;;;;;;5049550;28;20033;-69
2023/09/01 01:30:01;;;;;;;6.38;2.25;;;14.70;99.90;;;;;;5049630;28;20037;-69
2023/09/01 01:32:28;;;;;;;6.93;2.70;;;14.70;99.90;;;;;;5055606;28;20086;-68
2023/09/01 01:35:12;;;;;;;6.00;2.30;;;14.60;99.90;;;;;;5055710;28;20534;-69
2023/09/01 01:37:57;;;;;;;7.80;2.63;;;14.60;99.90;;;;;;5050879;28;20408;-69
2023/09/01 01:40:24;;;;;;;13.85;2.67;;;14.60;99.90;;;;;;5050822;28;20044;-68
2023/09/01 01:42:51;;;;;;;9.05;2.92;;;14.50;99.90;;;;;;5049303;28;20040;-66
2023/09/01 01:45:20;;;;;;;7.28;2.30;;;14.50;99.90;;;;;;5050690;28;20028;-70
2023/09/01 01:47:50;;;;;;;7.13;2.78;;;14.60;99.90;;;;;;5049304;28;20488;-67
2023/09/01 01:50:15;;;;;;;10.57;2.95;;;14.50;99.90;;;;;;5047355;28;20041;-68
2023/09/01 01:52:41;;;;;;;10.38;2.63;;;14.50;99.90;;;;;;5049030;28;20041;-67
2023/09/01 01:55:07;;;;;;;7.85;2.72;;;14.50;99.90;;;;;;5050784;28;20129;-68
2023/09/01 01:57:33;;;;;;;6.90;2.67;;;14.50;99.90;;;;;;5051821;28;20033;-69
2023/09/01 01:59:58;;;;;;;5.65;2.13;;;14.50;99.90;;;;;;5053949;28;20112;-68
2023/09/01 02:02:24;;;;;;;7.95;2.80;;;14.50;99.90;;;;;;5050909;28;20119;-68
2023/09/01 02:04:50;;;;;;;8.93;2.67;;;14.50;99.90;;;;;;5048943;28;20044;-68
2023/09/01 02:07:16;;;;;;;11.27;2.47;;;14.50;99.90;;;;;;5050466;28;20035;-67
2023/09/01 02:09:42;;;;;;;5.03;2.15;;;14.60;99.90;;;;;;5050693;28;20475;-66
2023/09/01 02:12:08;;;;;;;5.05;1.88;;;14.60;99.90;;;;;;5048810;28;20040;-67
2023/09/01 02:14:35;;;;;;;6.35;3.00;;;14.60;99.90;;;;;;5049171;28;20124;-68
2023/09/01 02:17:03;;;;;;;6.40;2.25;;;14.60;99.90;;;;;;5050697;28;20056;-67
2023/09/01 02:19:28;;;;;;;10.90;3.03;;;14.60;99.90;;;;;;5050663;28;20525;-67
2023/09/01 02:21:54;;;;;;;8.43;2.20;;;14.60;99.90;;;;;;5048583;28;20044;-67
2023/09/01 02:24:19;;;;;;;8.60;2.80;;;14.70;99.90;;;;;;5049296;28;20029;-70
2023/09/01 02:26:45;;;;;;;6.78;2.38;;;14.70;99.90;;;;;;5049666;28;20037;-66
2023/09/01 02:29:11;;;;;;;9.93;2.63;;;14.70;99.90;;;;;;5049995;28;20028;-66
2023/09/01 02:31:38;;;;;;;5.70;2.28;;;14.70;99.90;;;;;;5050228;28;20049;-67
2023/09/01 02:34:05;;;;;;;8.45;2.92;;;14.70;99.90;;;;;;5051473;28;20036;-66
2023/09/01 02:36:35;;;;;;;12.57;2.60;;;14.70;99.90;;;;;;5050075;28;20171;-66
2023/09/01 02:39:01;;;;;;;6.43;2.40;;;14.70;99.90;;;;;;5049425;28;20112;-69
2023/09/01 02:41:28;;;;;;;7.15;2.95;;;14.70;99.90;;;;;;5050418;28;20507;-68
2023/09/01 02:43:54;;;;;;;9.10;2.72;;;14.70;99.90;;;;;;5049881;28;20575;-67
2023/09/01 02:46:20;;;;;;;8.48;2.67;;;14.70;99.90;;;;;;5049946;28;20033;-68
2023/09/01 02:48:46;;;;;;;9.65;2.95;;;14.70;99.90;;;;;;5049104;28;20055;-68
2023/09/01 02:51:12;;;;;;;7.10;2.47;;;14.70;99.90;;;;;;5049507;28;20053;-68
2023/09/01 02:53:37;;;;;;;8.98;2.70;;;14.70;99.90;;;;;;5049927;28;20377;-68
2023/09/01 02:56:03;;;;;;;5.13;2.20;;;14.80;99.90;;;;;;5049302;28;20120;-71
2023/09/01 02:58:29;;;;;;;8.40;2.70;;;14.80;99.90;;;;;;5055549;28;20029;-70
2023/09/01 03:03:30;;;;;;;10.43;3.13;;;14.80;99.90;;;;;;5470187;22;20049;-73
2023/09/01 03:05:58;;;;;;;10.82;2.90;;;14.80;99.90;;;;;;5059752;28;20051;-73
2023/09/01 03:08:23;;;;;;;8.13;2.60;;;14.90;99.90;;;;;;5058221;28;20033;-72
2023/09/01 03:10:49;;;;;;;14.00;2.65;;;14.90;99.90;;;;;;5060931;28;20402;-73
2023/09/01 03:13:15;;;;;;;9.52;2.58;;;14.90;99.90;;;;;;5058001;28;20041;-73
2023/09/01 03:15:41;;;;;;;5.65;2.13;;;14.90;99.90;;;;;;5058437;28;20079;-73
2023/09/01 03:18:09;;;;;;;8.43;2.78;;;14.90;99.90;;;;;;5054171;28;20048;-72
2023/09/01 03:20:34;;;;;;;10.30;2.42;;;14.90;99.90;;;;;;5059669;28;20060;-71
2023/09/01 03:23:00;;;;;;;9.25;2.90;;;14.90;99.90;;;;;;5053947;28;20067;-73
2023/09/01 03:25:25;;;;;;;9.35;2.60;;;14.90;99.90;;;;;;5058508;28;20032;-72
2023/09/01 03:27:51;;;;;;;8.57;2.65;;;14.90;99.90;;;;;;5056788;28;20036;-73
2023/09/01 03:30:17;;;;;;;9.95;3.38;;;14.90;99.90;;;;;;5058969;28;20051;-72
2023/09/01 03:32:42;;;;;;;9.55;2.83;;;14.90;99.90;;;;;;5058682;28;20048;-73
2023/09/01 03:35:09;;;;;;;9.13;2.17;;;14.90;99.90;;;;;;5059047;28;20127;-73
2023/09/01 03:37:35;;;;;;;7.00;2.83;;;14.90;99.90;;;;;;5058645;28;20056;-74
2023/09/01 03:40:01;;;;;;;7.05;2.97;;;14.90;99.90;;;;;;5059306;28;20566;-72
2023/09/01 03:42:26;;;;;;;8.13;2.70;;;14.90;99.90;;;;;;5055573;28;20167;-71
2023/09/01 03:44:52;;;;;;;6.38;2.30;;;14.90;99.90;;;;;;5060363;28;20063;-73
2023/09/01 03:47:18;;;;;;;9.30;3.15;;;14.90;99.90;;;;;;5057825;28;20032;-73
2023/09/01 03:49:44;;;;;;;10.15;2.60;;;14.90;99.90;;;;;;5057837;28;20036;-72
2023/09/01 03:52:10;;;;;;;10.48;2.28;;;14.90;99.90;;;;;;5058535;28;20041;-72
2023/09/01 03:54:35;;;;;;;7.80;2.70;;;15.00;99.90;;;;;;5057774;28;20108;-72
2023/09/01 03:57:01;;;;;;;9.02;2.75;;;14.90;99.90;;;;;;5059746;28;20471;-73
2023/09/01 03:59:26;;;;;;;11.25;2.97;;;14.90;99.90;;;;;;5052881;28;20026;-73
2023/09/01 04:01:52;;;;;;;9.05;2.63;;;14.90;99.90;;;;;;5056775;28;20090;-73
2023/09/01 04:04:18;;;;;;;8.77;3.13;;;14.90;99.90;;;;;;5057388;28;20029;-72
2023/09/01 04:06:44;;;;;;;13.88;3.08;;;14.90;99.90;;;;;;5056362;28;20508;-73
2023/09/01 04:09:10;;;;;;;9.70;2.85;;;14.90;99.90;;;;;;5058604;28;20052;-73
2023/09/01 04:11:36;;;;;;;6.07;2.63;;;14.90;99.90;;;;;;5056787;28;20025;-74
2023/09/01 04:14:02;;;;;;;11.30;3.03;;;14.90;99.90;;;;;;5057846;28;20055;-72
2023/09/01 04:16:27;;;;;;;7.72;2.85;;;14.90;99.90;;;;;;5054866;28;20044;-71
2023/09/01 04:18:56;;;;;;;10.30;2.80;;;14.90;99.90;;;;;;5057511;28;20474;-73
2023/09/01 04:21:22;;;;;;;5.80;2.63;;;14.90;99.90;;;;;;5056635;28;20041;-71
2023/09/01 04:23:48;;;;;;;9.25;2.67;;;14.90;99.90;;;;;;5056756;28;20044;-72
2023/09/01 04:26:14;;;;;;;9.85;2.35;;;15.00;99.90;;;;;;5057199;28;20090;-72
2023/09/01 04:28:40;;;;;;;7.13;2.80;;;15.00;99.90;;;;;;5057392;28;20492;-74
2023/09/01 04:31:28;;;;;;;6.60;2.65;;;14.90;99.90;;;;;;5058394;28;20120;-72
2023/09/01 04:33:55;;;;;;;11.25;2.85;;;14.90;99.90;;;;;;5059605;28;20040;-73
2023/09/01 04:36:21;;;;;;;8.13;2.45;;;15.00;99.90;;;;;;5059102;28;20049;-73
2023/09/01 04:38:46;;;;;;;5.85;1.95;;;15.00;99.90;;;;;;5058193;28;20382;-71
2023/09/01 04:41:12;;;;;;;5.53;2.35;;;15.00;99.90;;;;;;5056229;28;20083;-71
2023/09/01 04:43:38;;;;;;;6.43;2.50;;;15.00;99.90;;;;;;5057134;28;20036;-73
2023/09/01 04:46:04;;;;;;;6.60;2.10;;;15.00;99.90;;;;;;5056798;28;20040;-73
2023/09/01 04:48:30;;;;;;;9.27;2.97;;;15.00;99.90;;;;;;5054916;28;20051;-72
2023/09/01 04:50:56;;;;;;;5.45;2.60;;;15.00;99.90;;;;;;5059882;28;20115;-73
2023/09/01 04:53:22;;;;;;;6.35;2.97;;;15.00;99.90;;;;;;5060234;28;20037;-73
2023/09/01 04:55:49;;;;;;;11.57;2.40;;;15.00;99.90;;;;;;5061978;28;20094;-72
2023/09/01 04:58:15;;;;;;;8.60;2.20;;;15.00;99.90;;;;;;5061507;28;20028;-72
2023/09/01 05:00:41;;;;;;;8.43;2.85;;;15.00;99.90;;;;;;5060698;28;20120;-72
2023/09/01 05:03:07;;;;;;;7.57;2.55;;;15.00;99.90;;;;;;5061301;28;20031;-73
2023/09/01 05:05:32;;;;;;;12.02;2.30;;;15.00;99.90;;;;;;5058590;28;20033;-74
2023/09/01 05:07:58;;;;;;;6.57;2.53;;;15.00;99.90;;;;;;5062666;28;20047;-72
2023/09/01 05:10:23;;;;;;;9.00;2.20;;;15.00;99.90;;;;;;5059893;28;20033;-73
2023/09/01 05:12:49;;;;;;;11.23;2.80;;;15.10;99.90;;;;;;5062022;28;20625;-72
2023/09/01 05:15:15;;;;;;;6.47;2.53;;;15.10;99.90;;;;;;5060141;28;20068;-72
2023/09/01 05:17:40;;;;;;;8.32;2.60;;;15.00;99.90;;;;;;5059611;28;20060;-72
2023/09/01 05:20:09;;;;;;;13.00;2.55;;;15.10;99.90;;;;;;5061437;28;20447;-72
2023/09/01 05:22:35;;;;;;;8.73;2.58;;;15.10;99.90;;;;;;5060098;28;20072;-74
2023/09/01 05:25:01;;;;;;;5.35;2.67;;;15.10;99.90;;;;;;5062148;28;20052;-72
2023/09/01 05:27:26;;;;;;;6.30;2.20;;;15.10;99.90;;;;;;5063705;28;20111;-73
2023/09/01 05:29:52;;;;;;;9.15;2.80;;;15.10;99.90;;;;;;5053152;28;20120;-71
2023/09/01 05:32:20;;;;;;;7.80;2.35;;;15.10;99.90;;;;;;5061680;28;20033;-74
2023/09/01 05:34:46;;;;;;;8.63;2.78;;;15.20;99.90;;;;;;5060005;28;20043;-74
2023/09/01 05:37:12;;;;;;;7.40;2.40;;;15.20;99.90;;;;;;5062320;28;20036;-73
2023/09/01 05:39:42;;;;;;;9.02;2.20;;;15.20;99.90;;;;;;5060205;28;20397;-74
2023/09/01 05:42:08;;;;;;;10.77;2.57;;;15.20;99.90;;;;;;5060417;28;20109;-72
2023/09/01 05:44:35;;;;;;;11.02;3.10;;;15.20;99.90;;;;;;5060059;28;20371;-72
2023/09/01 05:47:03;;;;;;;13.75;3.97;;;15.20;99.90;;;;;;5061275;28;20036;-73
2023/09/01 05:49:30;;;;;;;9.63;2.90;;;15.20;99.90;;;;;;5059410;28;20044;-72
2023/09/01 05:51:56;;;;;;;7.55;2.45;;;15.20;99.90;;;;;;5055989;28;20037;-72
2023/09/01 05:54:21;;;;;;;6.63;2.35;;;15.30;99.90;;;;;;5057677;28;20439;-72
2023/09/01 05:56:47;;;;;;;6.57;2.30;;;15.40;99.90;;;;;;5061210;28;20415;-73
2023/09/01 05:59:12;;;;;;;10.82;3.00;;;15.40;99.90;;;;;;5059651;28;20028;-72
2023/09/01 06:01:39;;;;;;;8.23;1.80;;;15.40;99.90;;;;;;5059643;28;20036;-72
2023/09/01 06:04:05;;;;;;;7.78;2.83;;;15.50;99.90;;;;;;5054012;28;20480;-73
2023/09/01 06:06:31;;;;;;;6.43;2.22;;;15.50;99.90;;;;;;5060892;28;20021;-74
2023/09/01 06:09:01;;;;;;;11.35;2.42;;;15.60;99.90;;;;;;5058517;28;20033;-73
2023/09/01 06:11:28;;;;;;;13.00;2.60;;;15.50;99.90;;;;;;5061327;28;20021;-72
2023/09/01 06:13:54;;;;;;;6.40;3.13;;;15.50;99.90;;;;;;5056662;28;20040;-74
2023/09/01 06:16:19;;;;;;;9.32;3.38;;;15.60;99.90;;;;;;5049867;28;20037;-73
2023/09/01 06:18:45;;;;;;;5.68;3.10;;;15.60;99.90;;;;;;5058344;28;20454;-73
2023/09/01 06:21:15;;;;;;;7.32;2.95;;;15.70;99.90;;;;;;5057270;28;20033;-73
2023/09/01 06:23:47;;;;;;;8.93;2.67;;;15.70;99.90;;;;;;5056735;28;20443;-72
2023/09/01 06:26:13;;;;;;;5.75;2.88;;;15.70;99.90;;;;;;5059627;28;20167;-71
2023/09/01 06:28:42;;;;;;;6.13;2.60;;;15.70;99.90;;;;;;5057312;28;20548;-74
2023/09/01 06:31:12;;;;;;;12.43;3.33;;;15.70;99.90;;;;;;5056474;28;20095;-72
2023/09/01 06:33:42;;;;;;;;;;;15.80;99.90;;;;;;5055865;28;20036;-71
2023/09/01 06:36:10;;;;;;;8.13;2.83;;;15.70;99.90;;;;;;5059097;28;20407;-72
2023/09/01 06:38:36;;;;;;;6.93;3.03;;;15.70;99.90;;;;;;5057261;28;20137;-74
2023/09/01 06:41:03;;;;;;;10.13;2.97;;;15.80;99.90;;;;;;5057903;28;20071;-73
2023/09/01 06:43:29;;;;;;;6.25;2.70;;;15.70;99.90;;;;;;5056895;28;20143;-73
2023/09/01 06:45:55;;;;;;;9.00;2.83;;;15.70;99.90;;;;;;5051977;28;20033;-73
2023/09/01 06:48:20;;;;;;;9.80;3.05;;;15.70;99.90;;;;;;5051158;28;20032;-73
2023/09/01 06:50:46;;;;;;;7.22;2.65;;;15.70;99.90;;;;;;5056287;28;20036;-73
2023/09/01 06:53:12;;;;;;;9.23;2.92;;;15.70;99.90;;;;;;5057029;28;20460;-71
2023/09/01 06:55:37;;;;;;;7.47;2.72;;;15.70;99.90;;;;;;5055518;28;20060;-72
2023/09/01 06:58:05;;;;;;;8.93;2.90;;;15.70;99.90;;;;;;5058198;28;20039;-73
2023/09/01 07:00:30;;;;;;;7.88;2.95;;;15.70;99.90;;;;;;5057514;28;20048;-72
2023/09/01 07:02:56;;;;;;;10.13;3.05;;;15.70;99.90;;;;;;5054989;28;20045;-73
2023/09/01 07:05:21;;;;;;;8.95;2.97;;;15.80;99.90;;;;;;5059987;28;20170;-72
2023/09/01 07:07:47;;;;;;;9.43;3.45;;;15.80;99.90;;;;;;5050646;28;20128;-73
2023/09/01 07:10:13;;;;;;;12.57;3.15;;;15.70;99.90;;;;;;5058983;28;20028;-71
2023/09/01 07:12:38;;;;;;;8.77;2.38;;;15.80;99.90;;;;;;5056859;28;20399;-74
2023/09/01 07:15:04;;;;;;;5.85;2.42;;;15.80;99.90;;;;;;5056934;28;20029;-72
2023/09/01 07:17:30;;;;;;;9.35;3.00;;;15.80;99.90;;;;;;5057237;28;20112;-73
2023/09/01 07:19:55;;;;;;;7.78;2.63;;;15.80;99.90;;;;;;5054062;28;21216;-72
2023/09/01 07:22:21;;;;;;;7.32;3.10;;;15.80;99.90;;;;;;5047033;28;20813;-73
2023/09/01 07:24:46;;;;;;;4.95;2.67;;;15.90;99.90;;;;;;5054035;28;20403;-74
2023/09/01 07:27:12;;;;;;;7.35;3.47;;;15.90;99.90;;;;;;5055195;28;20044;-72
2023/09/01 07:29:38;;;;;;;7.53;2.65;;;15.90;99.90;;;;;;5055961;28;20830;-72
2023/09/01 07:32:04;;;;;;;8.23;2.90;;;16.00;99.90;;;;;;5056351;28;20035;-74
2023/09/01 07:34:29;;;;;;;8.48;3.25;;;15.90;99.90;;;;;;5055087;28;20032;-71
2023/09/01 07:36:55;;;;;;;9.27;2.92;;;16.00;99.90;;;;;;5058696;28;20538;-72
2023/09/01 07:39:21;;;;;;;8.60;3.20;;;16.00;99.90;;;;;;5053229;28;20591;-72
2023/09/01 07:41:47;;;;;;;7.82;3.03;;;16.00;99.90;;;;;;5056612;28;20090;-73
2023/09/01 07:44:16;;;;;;;6.15;2.53;;;16.00;99.90;;;;;;5052826;28;20036;-70
2023/09/01 07:46:42;;;;;;;8.73;2.80;;;16.10;99.90;;;;;;5047986;28;20033;-71
2023/09/01 07:49:08;;;;;;;7.25;2.50;;;16.10;99.90;;;;;;5054514;28;20080;-72
2023/09/01 07:51:34;;;;;;;7.80;2.92;;;16.10;99.90;;;;;;5054168;28;20114;-72
2023/09/01 07:53:59;;;;;;;6.25;2.50;;;16.00;99.90;;;;;;5056112;28;20029;-73
2023/09/01 07:56:25;;;;;;;8.38;2.83;;;16.00;99.90;;;;;;5052799;28;20487;-74
2023/09/01 07:58:50;;;;;;;8.93;2.70;;;16.00;99.90;;;;;;5056152;28;20131;-73
2023/09/01 08:01:16;;;;;;;7.72;2.50;;;16.10;99.90;;;;;;5051288;28;21554;-73
2023/09/01 08:03:41;;;;;;;6.38;2.38;;;16.20;99.90;;;;;;5057918;28;20050;-71
2023/09/01 08:06:07;;;;;;;5.30;2.63;;;16.20;99.90;;;;;;5054901;28;20064;-74
2023/09/01 08:08:33;;;;;;;7.63;2.80;;;16.20;99.90;;;;;;5056493;28;20095;-73
2023/09/01 08:10:58;;;;;;;9.02;2.42;;;16.20;99.90;;;;;;5053080;28;20522;-72
2023/09/01 08:13:26;;;;;;;4.47;2.40;;;16.20;99.90;;;;;;5055936;28;20044;-72
2023/09/01 08:15:51;;;;;;;8.80;2.47;;;16.20;99.90;;;;;;5053314;28;20496;-71
2023/09/01 08:18:17;;;;;;;9.32;3.40;;;16.20;99.90;;;;;;5056613;28;20044;-71
2023/09/01 08:20:43;;;;;;;7.35;2.33;;;16.20;99.90;;;;;;5050043;28;20037;-72
2023/09/01 08:23:10;;;;;;;5.60;2.40;;;16.30;99.90;;;;;;5056862;28;20097;-72
2023/09/01 08:25:36;;;;;;;8.00;2.85;;;16.30;99.90;;;;;;5056731;28;20036;-73
2023/09/01 08:28:04;;;;;;;9.40;2.38;;;16.30;99.90;;;;;;5058997;28;20079;-72
2023/09/01 08:30:30;;;;;;;6.68;2.92;;;16.30;99.90;;;;;;5059925;28;20032;-72
2023/09/01 08:32:56;;;;;;;7.32;3.03;;;16.30;99.90;;;;;;5061706;28;20404;-72
2023/09/01 08:35:22;;;;;;;6.38;2.63;;;16.30;99.90;;;;;;5060215;28;20059;-74
2023/09/01 08:37:47;;;;;;;5.90;2.42;;;16.30;99.90;;;;;;5060560;28;20040;-72
2023/09/01 08:40:13;;;;;;;9.98;3.22;;;16.30;99.90;;;;;;5058627;28;20025;-73
2023/09/01 08:42:58;;;;;;;7.20;2.08;;;16.30;99.90;;;;;;5061954;28;20039;-72
2023/09/01 08:45:26;;;;;;;7.25;2.60;;;16.30;99.90;;;;;;5059442;28;20032;-74
2023/09/01 08:47:53;;;;;;;8.50;2.70;;;16.30;99.90;;;;;;5059830;28;20036;-72
2023/09/01 08:50:20;;;;;;;12.07;2.60;;;16.40;99.90;;;;;;5060246;28;20078;-72
2023/09/01 08:52:47;;;;;;;5.50;2.25;;;16.30;99.90;;;;;;5058929;28;20041;-72
2023/09/01 08:55:13;;;;;;;7.82;2.35;;;16.30;99.90;;;;;;5062591;28;20039;-72
2023/09/01 08:57:39;;;;;;;8.02;2.85;;;16.30;99.90;;;;;;5059834;28;20036;-70
2023/09/01 09:00:08;;;;;;;6.40;2.42;;;16.40;99.90;;;;;;5062517;28;20044;-72
2023/09/01 09:02:43;;;;;;;4.32;2.55;;;16.40;99.90;;;;;;5059262;28;20107;-72
2023/09/01 09:05:11;;;;;;;6.90;2.20;;;16.30;99.90;;;;;;5061877;28;20514;-71
2023/09/01 09:07:37;;;;;;;5.40;2.38;;;16.30;99.90;;;;;;5057355;28;20041;-76
2023/09/01 09:10:06;;;;;;;8.40;2.63;;;16.30;99.90;;;;;;5055926;28;20105;-71
2023/09/01 09:12:37;;;;;;;6.97;2.92;;;16.40;99.90;;;;;;5049341;28;20543;-73
2023/09/01 09:15:03;;;;;;;6.30;2.83;;;16.40;99.90;;;;;;5049390;28;20033;-71
2023/09/01 09:17:48;;;;;;;7.13;2.30;;;16.40;99.90;;;;;;5057748;28;20094;-71
2023/09/01 09:20:22;;;;;;;7.72;2.95;;;16.50;99.90;;;;;;5054138;28;20043;-71
2023/09/01 09:22:55;;;;;;;6.65;2.80;;;16.50;99.90;;;;;;5046610;28;20114;-71
2023/09/01 09:25:27;;;;;;;9.55;3.13;;;16.40;99.90;;;;;;5056934;28;20049;-72
2023/09/01 09:27:53;;;;;;;4.53;2.60;;;16.50;99.90;;;;;;5057795;28;20173;-72
2023/09/01 09:30:19;;;;;;;5.68;2.47;;;16.50;99.90;;;;;;5061524;28;20035;-73
2023/09/01 09:32:45;;;;;;;12.98;3.33;;;16.50;99.90;;;;;;5058612;28;20028;-71
2023/09/01 09:35:13;;;;;;;13.70;3.58;;;16.60;99.90;;;;;;5060769;28;20024;-73
2023/09/01 09:37:40;;;;;;;7.10;2.63;;;16.60;99.90;;;;;;5051067;28;20427;-72
2023/09/01 09:40:13;;;;;;;8.13;2.75;;;16.60;99.90;;;;;;5060738;28;20029;-73
2023/09/01 09:42:40;;;;;;;6.20;3.28;;;16.60;99.90;;;;;;5053066;28;20048;-72
2023/09/01 09:45:22;;;;;;;6.25;2.80;;;16.60;99.90;;;;;;5059392;28;20027;-73
2023/09/01 09:47:49;;;;;;;5.18;2.60;;;16.70;99.90;;;;;;5055649;28;20492;-73
2023/09/01 09:50:18;;;;;;;8.68;2.70;;;16.60;99.90;;;;;;5054713;28;20547;-72
2023/09/01 09:52:54;;;;;;;9.23;2.27;;;16.70;99.90;;;;;;5058820;28;20399;-72
2023/09/01 09:55:26;;;;;;;5.95;2.88;;;16.70;99.90;;;;;;5056984;28;20271;-73
2023/09/01 09:57:59;;;;;;;9.93;2.72;;;16.70;99.90;;;;;;5060531;28;20105;-71
2023/09/01 10:00:29;;;;;;;8.60;2.42;;;16.70;99.90;;;;;;5057323;28;20033;-72
2023/09/01 10:03:00;;;;;;;9.18;3.20;;;16.70;99.90;;;;;;5060534;28;20443;-72
2023/09/01 10:05:34;;;;;;;6.47;2.22;;;16.80;99.90;;;;;;5057238;28;20697;-73
2023/09/01 10:08:05;;;;;;;8.57;2.55;;;16.90;99.90;;;;;;5059106;28;20048;-72
2023/09/01 10:10:33;;;;;;;10.05;2.30;;;16.90;99.90;;;;;;5059878;28;20116;-73
2023/09/01 10:13:06;;;;;;;5.63;2.60;;;17.00;99.90;;;;;;5057110;28;20037;-73
2023/09/01 10:15:32;;;;;;;7.32;2.40;;;17.00;99.90;;;;;;5060316;28;20137;-73
2023/09/01 10:18:04;;;;;;;6.00;2.90;;;17.00;99.90;;;;;;5056261;28;20111;-74
2023/09/01 10:20:34;;;;;;;5.82;2.42;;;17.10;99.90;;;;;;5058791;28;20052;-73
2023/09/01 10:23:04;;;;;;;4.70;2.38;;;17.10;99.90;;;;;;5056979;28;20041;-72
2023/09/01 10:25:31;;;;;;;5.78;2.40;;;17.20;99.90;;;;;;5059967;28;20025;-72
2023/09/01 10:28:10;;;;;;;7.40;2.42;;;17.20;99.90;;;;;;5057026;28;20056;-72
2023/09/01 10:30:41;;;;;;;5.45;2.30;;;17.40;99.90;;;;;;5051058;28;20032;-72
2023/09/01 10:33:08;;;;;;;7.55;2.70;;;17.40;99.90;;;;;;5051173;28;20036;-72
2023/09/01 10:35:46;;;;;;;7.05;2.80;;;17.40;99.90;;;;;;5056706;28;20059;-72
2023/09/01 10:38:17;;;;;;;9.38;2.55;;;17.60;99.90;;;;;;5051452;28;20033;-73
2023/09/01 10:40:45;;;;;;;6.72;3.45;;;17.60;99.90;;;;;;5058578;28;20107;-73
2023/09/01 10:43:11;;;;;;;6.90;2.80;;;17.60;99.90;;;;;;5053621;28;20037;-71
2023/09/01 10:45:38;;;;;;;5.65;2.28;;;17.60;99.90;;;;;;5052332;28;20041;-73
2023/09/01 10:48:04;;;;;;;8.63;2.60;;;17.60;99.90;;;;;;5049748;28;20039;-72
2023/09/01 10:50:34;;;;;;;6.65;3.15;;;17.60;99.90;;;;;;5058982;28;20112;-73
2023/09/01 10:53:29;;;;;;;8.57;2.35;;;17.50;99.90;;;;;;5053812;28;20056;-74
2023/09/01 10:56:11;;;;;;;6.68;2.67;;;17.50;99.90;;;;;;5047439;28;20036;-73
2023/09/01 10:58:43;;;;;;;6.28;2.95;;;17.50;99.90;;;;;;5051892;28;20033;-72
2023/09/01 11:01:24;;;;;;;6.55;3.13;;;17.70;99.90;;;;;;5051938;28;20038;-71
2023/09/01 11:03:50;;;;;;;7.50;2.45;;;17.70;99.90;;;;;;5054469;28;20037;-71
2023/09/01 11:06:16;;;;;;;7.88;2.45;;;17.70;99.90;;;;;;5055888;28;20039;-72
2023/09/01 11:08:57;;;;;;;9.48;2.63;;;17.70;99.90;;;;;;5054392;28;20025;-74
2023/09/01 11:11:22;;;;;;;6.00;2.55;;;17.70;99.90;;;;;;5056202;28;20041;-73
2023/09/01 11:13:53;;;;;;;5.57;2.05;;;17.70;99.90;;;;;;5056221;28;20080;-73
2023/09/01 11:16:19;;;;;;;7.40;2.75;;;17.70;99.90;;;;;;5056903;28;20040;-73
2023/09/01 11:18:46;;;;;;;5.65;2.58;;;17.70;99.90;;;;;;5054625;28;20033;-73
2023/09/01 11:21:11;;;;;;;7.57;2.90;;;17.70;99.90;;;;;;5057633;28;20127;-72
2023/09/01 11:23:38;;;;;;;9.98;3.05;;;17.80;99.90;;;;;;5054759;28;20120;-72
2023/09/01 11:26:04;;;;;;;7.88;2.90;;;17.80;99.90;;;;;;5054615;28;20082;-72
2023/09/01 11:28:30;;;;;;;5.78;2.88;;;17.80;99.90;;;;;;5058274;28;20044;-72
2023/09/01 11:31:03;;;;;;;7.28;2.65;;;17.80;99.90;;;;;;5054372;28;20348;-73
2023/09/01 11:33:38;;;;;;;7.22;3.17;;;17.80;99.90;;;;;;5058000;28;20033;-74
2023/09/01 11:36:11;;;;;;;7.75;2.38;;;17.90;99.90;;;;;;5056485;28;20454;-72
2023/09/01 11:38:38;;;;;;;4.60;2.50;;;18.00;99.90;;;;;;5051247;28;20048;-71
2023/09/01 11:41:07;;;;;;;6.53;3.20;;;18.10;99.90;;;;;;5053760;28;20040;-73
2023/09/01 11:43:32;;;;;;;5.95;2.92;;;18.10;99.90;;;;;;5054144;28;20120;-73
2023/09/01 11:45:58;;;;;;;6.13;2.70;;;18.10;99.90;;;;;;5049994;28;20121;-73
2023/09/01 11:48:25;;;;;;;3.80;1.70;;;18.20;99.90;;;;;;5056370;28;20033;-71
2023/09/01 11:50:54;;;;;;;3.00;1.80;;;18.20;99.90;;;;;;5054232;28;20094;-72
2023/09/01 11:53:24;;;;;;;4.53;2.15;;;18.30;99.90;;;;;;5056448;28;20043;-71
2023/09/01 11:55:50;;;;;;;3.97;2.35;;;18.40;99.90;;;;;;5055544;28;20043;-72
2023/09/01 11:58:16;;;;;;;5.50;2.40;;;18.40;99.90;;;;;;5057144;28;20059;-71
2023/09/01 12:00:42;;;;;;;6.35;2.95;;;18.40;99.90;;;;;;5053198;28;20057;-73
2023/09/01 12:03:08;;;;;;;4.22;2.67;;;18.40;99.90;;;;;;5051635;28;20041;-72
2023/09/01 12:05:37;;;;;;;3.75;2.20;;;18.40;99.90;;;;;;5060949;28;20113;-74
2023/09/01 12:08:04;;;;;;;4.03;2.28;;;18.50;99.90;;;;;;5057405;28;20029;-72
2023/09/01 12:10:30;;;;;;;6.07;1.98;;;18.50;99.90;;;;;;5055981;28;20581;-71
2023/09/01 12:13:07;;;;;;;5.35;2.88;;;18.50;99.90;;;;;;5055548;28;20090;-72
2023/09/01 12:15:52;;;;;;;4.80;2.40;;;18.60;99.90;;;;;;5051821;28;20035;-75
2023/09/01 12:18:41;;;;;;;9.43;2.58;;;18.70;99.90;;;;;;5057986;28;20109;-74
2023/09/01 12:21:08;;;;;;;3.05;1.98;;;18.80;99.90;;;;;;5051005;28;20045;-72
2023/09/01 12:23:37;;;;;;;4.18;2.38;;;18.90;99.90;;;;;;5058400;28;20043;-73
2023/09/01 12:26:02;;;;;;;3.42;2.30;;;18.90;99.90;;;;;;5051422;28;20035;-73
2023/09/01 12:28:30;;;;;;;8.23;2.95;;;19.00;99.90;;;;;;5050316;28;20025;-72
2023/09/01 12:30:56;;;;;;;6.18;3.40;;;19.10;99.90;;;;;;5057485;28;20082;-73
2023/09/01 12:33:23;;;;;;;4.25;2.85;;;19.20;99.90;;;;;;5054626;28;20032;-73
2023/09/01 12:35:50;;;;;;;4.63;2.40;;;19.10;99.90;;;;;;5056167;28;20039;-71
2023/09/01 12:38:15;;;;;;;5.00;2.88;;;19.10;99.90;;;;;;5055815;28;20044;-73
2023/09/01 12:40:41;;;;;;;3.40;2.25;;;19.20;99.90;;;;;;5055572;28;20037;-70
2023/09/01 12:43:07;;;;;;;5.50;2.35;;;19.20;99.90;;;;;;5056329;28;20035;-72
2023/09/01 12:45:32;;;;;;;6.57;2.20;;;19.10;99.90;;;;;;5050456;28;20068;-71
2023/09/01 12:48:01;;;;;;;4.95;2.17;;;19.10;99.90;;;;;;5052374;28;20573;-73
2023/09/01 12:50:28;;;;;;;4.22;2.40;;;19.10;99.90;;;;;;5048492;28;20076;-72